Terminal Aerodrome Forecast
Issued by NWS Cleveland, OH

Home | Current Version | Previous Version | Text Only | Print | Product List | Glossary On
Versions: 1 2 3 4 5 6 7 8 9 10 11 12 13 14 15 16 17 18 19 20 21 22 23 24 25 26
000
FTUS41 KCLE 282000 AAB
TAFCAK
TAF AMD
KCAK 282024Z 2820/2918 21005KT P6SM BKN025
      TEMPO 2822/2901 1SM -SHSN OVC015
     FM290600 18010KT P6SM -SN BKN035 OVC100 PROB30 2908/2911 -FZDZ
      OVC025
     FM291400 19012G20KT P6SM OVC035
     FM291600 19014G22KT P6SM VCSH SCT025 OVC035=

USA.gov is the U.S. government's official web portal to all federal, state and local government web resources and services.